Time;durP1;ratioP1;P1;durP2;ratioP2;P2;SDS_P1;SDS_P2;PMS_P1;PMS_P2;Temp;Humidity;BMP_temperature;BMP_pressure;BME280_temperature;BME280_humidity;BME280_pressure;Samples;Min_cycle;Max_cycle;Signal;HPM_P1;HPM_P2
2021/09/01 00:00:21;;;;;;;41.17;38.53;;;;;;;16.00;100.00;103131.02;1972204;73;32894;-72
2021/09/01 00:05:45;;;;;;;39.07;36.53;;;;;;;16.05;100.00;103131.03;1972126;73;33513;-70
2021/09/01 00:11:10;;;;;;;38.83;36.33;;;;;;;16.09;100.00;103130.23;1972122;73;33404;-72
2021/09/01 00:16:34;;;;;;;41.17;38.53;;;;;;;16.10;100.00;103126.88;1971906;73;32976;-73
2021/09/01 00:22:00;;;;;;;40.23;37.47;;;;;;;16.01;100.00;103136.33;1955569;73;33407;-73
2021/09/01 00:27:24;;;;;;;40.63;37.80;;;;;;;16.05;100.00;103126.27;1972181;73;32909;-73
2021/09/01 00:32:52;;;;;;;39.23;36.67;;;;;;;16.07;100.00;103128.27;1972004;73;30959;-72
2021/09/01 00:38:16;;;;;;;39.93;37.17;;;;;;;16.05;100.00;103124.87;1972193;73;33462;-72
2021/09/01 00:43:41;;;;;;;39.93;37.23;;;;;;;16.08;100.00;103122.96;1971990;73;32905;-69
2021/09/01 00:49:05;;;;;;;39.70;36.77;;;;;;;16.06;100.00;103131.33;1972163;73;33414;-69
2021/09/01 00:54:31;;;;;;;40.93;38.23;;;;;;;16.18;100.00;103122.17;1971902;73;32962;-69
2021/09/01 00:59:57;;;;;;;41.50;38.70;;;;;;;16.19;100.00;103122.47;1972234;72;31440;-69
2021/09/01 01:05:22;;;;;;;39.97;37.33;;;;;;;16.14;100.00;103123.28;1971942;73;32893;-72
2021/09/01 01:10:47;;;;;;;39.97;37.20;;;;;;;16.15;100.00;103128.33;1972022;73;33044;-69
2021/09/01 01:16:14;;;;;;;40.80;38.00;;;;;;;16.16;100.00;103128.08;1971961;73;33004;-73
2021/09/01 01:21:39;;;;;;;43.10;40.30;;;;;;;16.23;100.00;103118.02;1971889;73;31058;-73
2021/09/01 01:27:04;;;;;;;41.73;38.93;;;;;;;16.24;100.00;103119.16;1972152;73;33497;-73
2021/09/01 01:32:31;;;;;;;39.47;36.87;;;;;;;16.26;100.00;103121.13;1971883;73;33004;-73
2021/09/01 01:37:58;;;;;;;39.63;36.97;;;;;;;16.19;100.00;103120.52;1971915;73;33000;-69
2021/09/01 01:43:23;;;;;;;36.90;34.60;;;;;;;16.10;100.00;103118.47;1972207;73;33500;-69
2021/09/01 01:48:49;;;;;;;36.70;34.30;;;;;;;16.01;100.00;103120.91;1972193;73;33394;-73
2021/09/01 01:54:14;;;;;;;36.53;34.23;;;;;;;16.04;100.00;103118.16;1971942;73;32886;-69
2021/09/01 01:59:41;;;;;;;38.23;35.73;;;;;;;16.03;100.00;103123.46;1972029;73;32892;-72
2021/09/01 02:05:07;;;;;;;38.90;36.30;;;;;;;16.02;100.00;103132.42;1972128;73;33383;-72
2021/09/01 02:10:32;;;;;;;38.80;36.30;;;;;;;16.04;100.00;103126.56;1972132;73;31549;-72
2021/09/01 02:15:56;;;;;;;40.63;38.13;;;;;;;15.97;100.00;103121.71;1971903;73;33069;-69
2021/09/01 02:21:21;;;;;;;41.57;38.53;;;;;;;15.97;100.00;103126.77;1971889;73;32951;-72
2021/09/01 02:26:45;;;;;;;39.10;36.40;;;;;;;16.05;100.00;103122.63;1971902;73;32897;-69
2021/09/01 02:32:12;;;;;;;41.53;38.90;;;;;;;16.07;100.00;103116.20;1971998;73;32988;-69
2021/09/01 02:37:36;;;;;;;42.30;39.47;;;;;;;15.96;100.00;103118.06;1972167;73;32959;-69
2021/09/01 02:43:04;;;;;;;40.20;37.37;;;;;;;15.89;100.00;103125.85;1972154;73;31445;-72
2021/09/01 02:48:28;;;;;;;41.60;38.77;;;;;;;16.02;100.00;103124.56;1971987;73;32982;-69
2021/09/01 02:53:53;;;;;;;40.43;37.73;;;;;;;16.03;100.00;103120.11;1972168;73;33398;-72
2021/09/01 02:59:17;;;;;;;41.07;38.23;;;;;;;16.05;100.00;103121.22;1971888;73;33286;-72
2021/09/01 03:04:42;;;;;;;39.60;37.10;;;;;;;15.99;100.00;103123.16;1971897;73;32964;-69
2021/09/01 03:10:08;;;;;;;40.70;38.20;;;;;;;15.98;100.00;103116.41;1971923;73;32888;-70
2021/09/01 03:15:33;;;;;;;40.50;38.00;;;;;;;15.84;100.00;103114.59;1972182;73;33421;-70
2021/09/01 03:20:58;;;;;;;40.77;38.17;;;;;;;15.74;100.00;103104.15;1972073;73;33407;-72
2021/09/01 03:26:26;;;;;;;41.93;39.20;;;;;;;15.59;100.00;103095.57;1971905;73;32900;-69
2021/09/01 03:31:49;;;;;;;41.13;38.53;;;;;;;15.62;100.00;103092.23;1971915;73;30948;-72
2021/09/01 03:37:13;;;;;;;42.40;39.60;;;;;;;15.57;100.00;103100.61;1972118;73;33436;-72
2021/09/01 03:42:40;;;;;;;40.73;38.00;;;;;;;15.65;100.00;103088.92;1971906;73;32912;-69
2021/09/01 03:48:07;;;;;;;41.63;38.73;;;;;;;15.64;100.00;103084.42;1971887;73;32934;-72
2021/09/01 03:53:32;;;;;;;41.30;38.63;;;;;;;15.60;100.00;103088.86;1971856;73;32988;-72
2021/09/01 03:58:57;;;;;;;42.67;39.70;;;;;;;15.52;100.00;103078.69;1971858;73;32993;-72
2021/09/01 04:04:21;;;;;;;42.50;39.50;;;;;;;15.59;100.00;103086.31;1972140;73;33601;-69
2021/09/01 04:09:46;;;;;;;44.03;40.93;;;;;;;15.52;100.00;103085.69;1971875;73;33404;-71
2021/09/01 04:15:12;;;;;;;42.37;39.30;;;;;;;15.60;100.00;103092.22;1972119;73;33525;-72
2021/09/01 04:20:36;;;;;;;44.00;41.00;;;;;;;15.63;100.00;103094.48;1971922;73;32909;-72
2021/09/01 04:26:01;;;;;;;43.93;40.93;;;;;;;15.60;100.00;103094.47;1971880;72;32918;-72
2021/09/01 04:31:25;;;;;;;43.37;40.43;;;;;;;15.71;100.00;103091.20;1972106;73;33525;-69
2021/09/01 04:36:50;;;;;;;46.00;42.83;;;;;;;15.71;100.00;103096.80;1972089;73;33482;-72
2021/09/01 04:42:14;;;;;;;45.10;41.73;;;;;;;15.69;100.00;103101.84;1971856;73;32901;-69
2021/09/01 04:47:39;;;;;;;44.97;41.43;;;;;;;15.65;100.00;103109.94;1972128;73;33034;-73
2021/09/01 04:53:05;;;;;;;43.50;40.30;;;;;;;15.57;100.00;103106.77;1972143;72;33385;-69
2021/09/01 04:58:30;;;;;;;45.80;42.40;;;;;;;15.62;100.00;103108.19;1971920;73;32922;-72
2021/09/01 05:03:54;;;;;;;46.17;42.83;;;;;;;15.63;100.00;103109.34;1972181;73;31454;-73
2021/09/01 05:09:19;;;;;;;46.87;43.40;;;;;;;15.60;100.00;103102.88;1971934;73;32929;-69
2021/09/01 05:14:43;;;;;;;47.20;43.57;;;;;;;15.63;100.00;103102.33;1971960;73;32981;-69
2021/09/01 05:20:11;;;;;;;49.73;46.03;;;;;;;15.56;100.00;103115.72;1972137;72;31519;-72
2021/09/01 05:25:44;;;;;;;48.60;45.03;;;;;;;15.57;100.00;103112.37;1971922;73;32917;-72
2021/09/01 05:31:10;;;;;;;48.00;44.40;;;;;;;15.54;100.00;103115.13;1972140;73;32961;-72
2021/09/01 05:36:38;;;;;;;49.47;46.03;;;;;;;15.62;100.00;103123.05;1972164;73;32903;-69
2021/09/01 05:42:03;;;;;;;49.00;45.40;;;;;;;15.60;100.00;103126.69;1971910;73;32904;-69
2021/09/01 05:47:29;;;;;;;50.13;46.43;;;;;;;15.64;100.00;103135.41;1972023;73;32959;-73
2021/09/01 05:52:57;;;;;;;50.57;47.20;;;;;;;15.70;100.00;103142.77;1972151;73;33465;-71
2021/09/01 05:58:25;;;;;;;51.70;48.27;;;;;;;15.69;100.00;103141.92;1971901;73;32930;-72
2021/09/01 06:03:53;;;;;;;49.27;45.83;;;;;;;15.73;100.00;103125.42;1972021;73;33042;-69
2021/09/01 06:09:21;;;;;;;49.80;45.97;;;;;;;15.73;100.00;103124.87;1971930;73;32923;-68
2021/09/01 06:14:48;;;;;;;49.13;45.50;;;;;;;15.76;100.00;103119.27;1972261;73;33403;-73
2021/09/01 06:20:14;;;;;;;49.50;46.00;;;;;;;15.78;100.00;103119.88;1971891;72;32996;-73
2021/09/01 06:25:40;;;;;;;47.93;44.77;;;;;;;15.79;100.00;103119.58;1972114;73;32991;-73
2021/09/01 06:31:06;;;;;;;48.63;45.43;;;;;;;15.93;100.00;103119.45;1971894;73;32894;-71
2021/09/01 06:36:31;;;;;;;47.83;44.67;;;;;;;16.00;100.00;103124.00;1971807;73;33029;-71
2021/09/01 06:41:56;;;;;;;47.77;44.47;;;;;;;16.09;100.00;103131.64;1972081;73;33400;-69
2021/09/01 06:47:20;;;;;;;45.97;42.43;;;;;;;16.16;100.00;103129.48;1971892;73;33034;-72
2021/09/01 06:52:47;;;;;;;46.33;43.00;;;;;;;16.18;100.00;103131.44;1971950;73;33007;-73
2021/09/01 06:58:19;;;;;;;45.90;42.60;;;;;;;16.28;100.00;103128.73;1971933;73;32986;-69
2021/09/01 07:03:44;;;;;;;44.03;41.03;;;;;;;16.42;100.00;103132.48;1971966;73;33006;-68
2021/09/01 07:09:09;;;;;;;46.20;42.87;;;;;;;16.47;100.00;103130.57;1972119;73;33379;-73
2021/09/01 07:14:33;;;;;;;45.00;41.90;;;;;;;16.49;100.00;103130.28;1972201;73;33403;-73
2021/09/01 07:19:58;;;;;;;44.53;41.30;;;;;;;16.60;100.00;103136.30;1972142;73;33420;-73
2021/09/01 07:25:22;;;;;;;44.47;41.30;;;;;;;16.65;100.00;103141.92;1971887;73;30968;-74
2021/09/01 07:30:47;;;;;;;42.97;40.17;;;;;;;16.79;100.00;103138.94;1971871;73;30974;-71
2021/09/01 07:36:12;;;;;;;42.93;39.93;;;;;;;16.81;100.00;103140.92;1971878;73;32980;-73
2021/09/01 07:41:37;;;;;;;41.43;38.53;;;;;;;16.97;100.00;103136.23;1972256;73;33670;-73
2021/09/01 07:47:02;;;;;;;42.13;39.33;;;;;;;17.01;100.00;103145.24;1972150;73;33525;-73
2021/09/01 07:52:27;;;;;;;40.53;37.63;;;;;;;17.16;100.00;103141.09;1971951;73;30963;-72
2021/09/01 07:57:51;;;;;;;40.70;37.77;;;;;;;17.17;100.00;103137.72;1972130;72;33605;-68
2021/09/01 08:03:16;;;;;;;40.27;37.40;;;;;;;17.20;100.00;103137.20;1971977;73;32989;-72
2021/09/01 08:08:41;;;;;;;40.40;37.63;;;;;;;17.36;100.00;103145.12;1971912;73;31012;-72
2021/09/01 08:14:05;;;;;;;40.83;38.03;;;;;;;17.34;100.00;103144.53;1972168;73;33405;-73
2021/09/01 08:19:30;;;;;;;40.37;37.57;;;;;;;17.42;100.00;103153.83;1952021;73;32998;-69
2021/09/01 08:24:54;;;;;;;38.60;36.00;;;;;;;17.44;100.00;103154.42;1971956;73;32896;-72
2021/09/01 08:30:19;;;;;;;38.30;35.80;;;;;;;17.64;100.00;103154.50;1972154;73;31512;-73
2021/09/01 08:35:43;;;;;;;39.87;37.03;;;;;;;17.68;100.00;103166.33;1971953;73;30981;-73
2021/09/01 08:41:09;;;;;;;38.07;35.27;;;;;;;17.87;100.00;103154.56;1972141;73;31041;-68
2021/09/01 08:46:35;;;;;;;37.30;34.60;;;;;;;17.85;100.00;103154.83;1972177;73;31518;-73
2021/09/01 08:52:00;;;;;;;37.53;34.97;;;;;;;17.82;100.00;103154.00;1972166;73;33458;-73
2021/09/01 08:57:25;;;;;;;36.67;34.07;;;;;;;17.91;100.00;103145.30;1972176;73;30930;-73
2021/09/01 09:02:58;;;;;;;41.17;38.27;;;;;;;17.88;100.00;103150.08;1972222;73;31024;-69
2021/09/01 09:11:19;;;;;;;39.87;37.17;;;;;;;17.90;100.00;103150.62;2061323;69;30575;-68
2021/09/01 09:13:49;;;;;;;38.83;36.10;;;;;;;17.91;100.00;103163.58;1950670;73;24120;-69
2021/09/01 09:16:21;;;;;;;38.50;35.97;;;;;;;18.01;100.00;103158.53;2030638;71;24640;-69
2021/09/01 09:18:51;;;;;;;38.97;36.37;;;;;;;18.19;100.00;103157.96;2030993;71;24165;-69
2021/09/01 09:21:22;;;;;;;39.43;36.83;;;;;;;18.11;100.00;103158.53;2019463;71;24133;-68
2021/09/01 09:23:54;;;;;;;37.90;35.27;;;;;;;18.21;100.00;103151.51;1993783;72;24645;-70
2021/09/01 09:26:26;;;;;;;38.27;35.63;;;;;;;18.24;100.00;103136.02;1993700;72;24147;-69
2021/09/01 09:29:13;;;;;;;38.40;35.70;;;;;;;18.46;100.00;103141.65;1993573;72;24173;-69
2021/09/01 09:31:47;;;;;;;39.17;36.63;;;;;;;18.19;100.00;103136.30;1993828;72;24127;-69
2021/09/01 09:34:21;;;;;;;39.13;36.47;;;;;;;18.11;100.00;103146.72;1993696;72;24146;-70
2021/09/01 09:37:12;;;;;;;39.90;37.10;;;;;;;18.04;100.00;103141.09;1993844;72;24229;-69
2021/09/01 09:39:45;;;;;;;41.53;38.30;;;;;;;18.01;100.00;103150.91;1993804;72;24127;-70
2021/09/01 09:42:17;;;;;;;40.57;37.70;;;;;;;17.86;100.00;103155.13;1993735;72;24224;-70
2021/09/01 09:44:47;;;;;;;40.03;37.33;;;;;;;17.97;100.00;103157.41;1990630;72;24154;-69
2021/09/01 09:47:17;;;;;;;39.67;36.67;;;;;;;18.04;100.00;103152.34;1993674;72;24739;-69
2021/09/01 09:52:42;;;;;;;39.73;37.00;;;;;;;18.09;100.00;103146.16;1972181;73;31510;-70
2021/09/01 09:58:09;;;;;;;39.43;36.73;;;;;;;18.26;100.00;103138.85;1972045;73;30969;-70
2021/09/01 10:03:36;;;;;;;38.07;35.57;;;;;;;18.49;100.00;103128.97;1971970;73;31052;-70
2021/09/01 10:09:04;;;;;;;37.50;35.03;;;;;;;18.67;100.00;103132.64;1971981;73;30946;-70
2021/09/01 10:14:32;;;;;;;39.30;36.57;;;;;;;18.56;100.00;103137.45;1972188;73;31439;-68
2021/09/01 10:19:59;;;;;;;39.60;36.83;;;;;;;18.28;100.00;103143.62;1972171;73;33452;-68
2021/09/01 10:25:35;;;;;;;42.87;39.67;;;;;;;17.95;100.00;103149.80;1971979;73;31052;-69
2021/09/01 10:31:33;;;;;;;42.83;39.80;;;;;;;17.78;100.00;103159.05;1972001;73;30968;-69
2021/09/01 10:37:38;;;;;;;41.60;38.90;;;;;;;17.95;100.00;103152.05;1971951;73;31019;-70
2021/09/01 10:43:19;;;;;;;41.30;38.50;;;;;;;18.13;100.00;103159.95;1971923;73;30971;-70
2021/09/01 10:48:59;;;;;;;41.17;38.57;;;;;;;18.27;100.00;103148.14;1972147;73;33382;-70
2021/09/01 10:54:32;;;;;;;38.63;36.20;;;;;;;18.52;100.00;103133.52;1972195;73;31038;-70
2021/09/01 11:00:00;;;;;;;38.33;35.90;;;;;;;18.55;100.00;103139.98;1972234;73;31420;-67
2021/09/01 11:05:25;;;;;;;37.50;35.17;;;;;;;18.76;100.00;103129.52;1972177;73;33350;-67
2021/09/01 11:10:59;;;;;;;37.17;34.87;;;;;;;18.78;100.00;103130.66;1972186;73;31514;-69
2021/09/01 11:16:38;;;;;;;35.87;33.57;;;;;;;18.88;100.00;103129.20;1972131;73;30987;-67
2021/09/01 11:22:08;;;;;;;36.90;34.70;;;;;;;18.77;100.00;103134.59;1964494;71;31072;-69
2021/09/01 11:27:48;;;;;;;39.20;36.90;;;;;;;18.48;100.00;103136.56;1971862;73;31071;-68
2021/09/01 11:33:16;;;;;;;40.23;37.73;;;;;;;18.13;100.00;103150.66;1972184;73;31537;-67
2021/09/01 11:38:47;;;;;;;45.03;42.23;;;;;;;17.94;100.00;103150.91;1972159;73;31524;-67
2021/09/01 11:44:12;;;;;;;45.10;42.57;;;;;;;17.94;100.00;103148.95;1972173;73;33399;-70
2021/09/01 11:49:37;;;;;;;44.53;41.93;;;;;;;17.79;100.00;103145.27;1971942;73;31123;-67
2021/09/01 11:55:03;;;;;;;44.87;42.07;;;;;;;18.14;100.00;103137.70;1972090;73;31102;-67
2021/09/01 12:00:28;;;;;;;42.07;39.67;;;;;;;18.58;100.00;103123.08;1972112;73;33426;-69
2021/09/01 12:06:07;;;;;;;42.60;40.10;;;;;;;18.99;100.00;103118.20;1971935;73;31016;-69
2021/09/01 12:11:38;;;;;;;42.27;39.77;;;;;;;19.02;100.00;103117.05;1971994;73;31003;-71
2021/09/01 12:17:19;;;;;;;43.20;40.67;;;;;;;18.79;100.00;103097.12;1972156;73;31514;-67
2021/09/01 12:22:46;;;;;;;41.37;39.17;;;;;;;18.74;100.00;103096.56;1971980;73;31009;-71
2021/09/01 12:28:17;;;;;;;42.03;39.73;;;;;;;19.06;100.00;103090.55;1972194;73;31421;-69
2021/09/01 12:33:43;;;;;;;38.63;36.47;;;;;;;19.38;100.00;103083.89;1971978;72;31042;-69
2021/09/01 12:39:21;;;;;;;39.57;37.07;;;;;;;19.40;100.00;103083.05;1971937;73;30953;-66
2021/09/01 12:44:51;;;;;;;39.77;37.53;;;;;;;19.56;100.00;103078.18;1972081;73;30986;-65
2021/09/01 12:50:19;;;;;;;40.97;38.67;;;;;;;19.29;100.00;103079.18;1971951;73;30961;-65
2021/09/01 12:55:45;;;;;;;39.80;37.60;;;;;;;19.36;100.00;103062.22;1972192;73;31541;-69
2021/09/01 13:01:10;;;;;;;40.17;37.87;;;;;;;19.22;100.00;103063.13;1971946;73;31027;-68
2021/09/01 13:06:35;;;;;;;38.43;36.30;;;;;;;19.18;100.00;103054.42;1972113;73;30987;-65
2021/09/01 13:12:01;;;;;;;37.60;35.50;;;;;;;19.12;100.00;103048.56;1972164;73;30984;-71
2021/09/01 13:17:26;;;;;;;36.67;34.67;;;;;;;19.03;100.00;103047.47;1971913;72;30999;-68
2021/09/01 13:22:53;;;;;;;38.20;36.03;;;;;;;19.12;100.00;103046.30;1960508;71;30969;-68
2021/09/01 13:28:19;;;;;;;35.90;33.63;;;;;;;19.78;100.00;103048.98;1971994;73;31002;-69
2021/09/01 13:33:44;;;;;;;30.97;29.27;;;;;;;19.72;100.00;103047.36;1972057;72;31122;-71
2021/09/01 13:39:09;;;;;;;32.33;30.60;;;;;;;19.98;100.00;103038.92;1972147;73;30960;-67
2021/09/01 13:44:34;;;;;;;33.20;31.07;;;;;;;20.21;100.00;103049.16;1971948;73;30961;-69
2021/09/01 13:50:00;;;;;;;33.83;31.83;;;;;;;20.25;100.00;103048.84;1972075;72;31207;-67
2021/09/01 13:55:25;;;;;;;31.43;29.53;;;;;;;20.27;100.00;103039.52;1971998;73;31108;-66
2021/09/01 14:00:52;;;;;;;30.77;28.87;;;;;;;20.04;100.00;103034.66;1971984;73;30944;-68
2021/09/01 14:06:19;;;;;;;31.33;29.63;;;;;;;19.81;100.00;103031.45;1972226;73;33434;-68
2021/09/01 14:11:44;;;;;;;28.33;26.63;;;;;;;19.78;100.00;103037.70;1972104;72;30932;-66
2021/09/01 14:17:10;;;;;;;31.30;29.30;;;;;;;19.74;100.00;103027.30;1971943;73;30927;-66
2021/09/01 14:22:36;;;;;;;29.10;27.50;;;;;;;19.71;100.00;103019.44;1961930;71;30986;-66
2021/09/01 14:28:03;;;;;;;31.23;29.63;;;;;;;19.63;100.00;103015.84;1972171;73;31503;-67
2021/09/01 14:33:28;;;;;;;31.00;29.20;;;;;;;19.40;100.00;103011.73;1971992;72;30977;-67
2021/09/01 14:38:53;;;;;;;29.07;27.57;;;;;;;19.51;100.00;103008.57;1971943;73;30947;-69
2021/09/01 14:44:18;;;;;;;30.40;28.60;;;;;;;19.59;100.00;103008.54;1972029;72;30990;-67
2021/09/01 14:49:43;;;;;;;28.83;27.23;;;;;;;19.76;100.00;103003.33;1972047;73;30964;-67
2021/09/01 14:55:10;;;;;;;29.00;27.33;;;;;;;19.67;100.00;103003.68;1971987;73;31030;-66
2021/09/01 15:00:36;;;;;;;28.87;27.17;;;;;;;19.65;100.00;102993.81;1972092;73;30962;-66
2021/09/01 15:06:01;;;;;;;29.70;28.00;;;;;;;19.64;100.00;102995.78;1971976;73;30951;-66
2021/09/01 15:11:25;;;;;;;30.23;28.43;;;;;;;19.72;100.00;102989.54;1972137;73;30931;-66
2021/09/01 15:16:51;;;;;;;30.70;28.73;;;;;;;19.47;100.00;102982.67;1972117;73;31501;-67
2021/09/01 15:22:16;;;;;;;31.73;29.73;;;;;;;19.34;100.00;102990.38;1963586;71;30971;-69
2021/09/01 15:27:43;;;;;;;31.00;29.20;;;;;;;19.33;100.00;102990.94;1972190;73;30952;-67
2021/09/01 15:33:10;;;;;;;30.80;29.10;;;;;;;19.45;100.00;102985.80;1971997;73;31029;-69
2021/09/01 15:38:37;;;;;;;31.53;29.73;;;;;;;19.53;100.00;102984.33;1971935;72;31019;-69
2021/09/01 15:44:02;;;;;;;29.10;27.47;;;;;;;19.54;100.00;102976.16;1972055;73;31027;-69
2021/09/01 15:49:31;;;;;;;27.40;25.90;;;;;;;19.47;100.00;102972.23;1971963;73;31000;-66
2021/09/01 15:54:55;;;;;;;28.87;27.37;;;;;;;19.39;100.00;102967.77;1972059;73;31022;-69
2021/09/01 16:00:21;;;;;;;27.93;26.23;;;;;;;19.53;100.00;102966.00;1972238;73;31492;-71
2021/09/01 16:05:48;;;;;;;26.57;25.07;;;;;;;19.55;100.00;102966.56;1972159;73;31424;-71
2021/09/01 16:11:15;;;;;;;25.63;24.23;;;;;;;19.60;100.00;102958.03;1971981;73;30958;-69
2021/09/01 16:16:44;;;;;;;27.83;26.43;;;;;;;19.47;100.00;102959.55;1972154;73;33447;-70
2021/09/01 16:22:17;;;;;;;29.27;27.57;;;;;;;19.39;100.00;102953.11;1972008;73;30968;-69
2021/09/01 16:27:44;;;;;;;29.03;27.13;;;;;;;19.35;100.00;102949.76;1972222;73;30938;-68
2021/09/01 16:33:10;;;;;;;30.43;28.63;;;;;;;19.30;100.00;102945.00;1972162;73;31441;-69
2021/09/01 16:38:38;;;;;;;30.07;28.37;;;;;;;19.33;100.00;102940.77;1971933;73;31004;-69
2021/09/01 16:44:05;;;;;;;29.27;27.57;;;;;;;19.29;100.00;102927.84;1971945;73;31023;-69
2021/09/01 16:49:30;;;;;;;29.97;28.17;;;;;;;19.36;100.00;102931.72;1972188;73;30934;-69
2021/09/01 16:54:59;;;;;;;29.60;27.80;;;;;;;19.29;100.00;102929.81;1971936;73;30939;-69
2021/09/01 17:00:28;;;;;;;27.70;26.00;;;;;;;19.23;100.00;102936.61;1971978;72;30929;-69
2021/09/01 17:05:56;;;;;;;28.83;27.20;;;;;;;19.19;100.00;102936.92;1972065;73;30926;-69
2021/09/01 17:11:24;;;;;;;30.70;28.90;;;;;;;19.23;100.00;102926.19;1972025;73;30939;-69
2021/09/01 17:16:49;;;;;;;31.67;29.67;;;;;;;19.16;100.00;102930.47;1972038;73;31006;-68
2021/09/01 17:22:17;;;;;;;31.47;29.53;;;;;;;19.19;100.00;102925.09;1972020;73;30989;-71
2021/09/01 17:27:46;;;;;;;32.17;30.17;;;;;;;19.09;100.00;102917.55;1972112;73;30934;-68
2021/09/01 17:30:18;;;;;;;33.20;31.20;;;;;;;19.01;100.00;102925.77;1934788;74;24639;-69
2021/09/01 17:35:46;;;;;;;33.30;31.40;;;;;;;18.99;100.00;102921.86;1972175;73;31437;-70
2021/09/01 17:41:13;;;;;;;34.20;32.27;;;;;;;18.93;100.00;102935.69;1972180;73;31474;-69
2021/09/01 17:46:41;;;;;;;32.87;30.97;;;;;;;18.90;100.00;102927.83;1972148;73;31540;-68
2021/09/01 17:52:07;;;;;;;34.00;31.90;;;;;;;18.82;100.00;102927.59;1972011;73;30999;-68
2021/09/01 17:54:41;;;;;;;34.80;32.80;;;;;;;18.76;100.00;102928.75;1934834;74;24198;-67
2021/09/01 18:00:09;;;;;;;32.90;30.90;;;;;;;18.81;100.00;102927.31;1972184;73;31390;-69
2021/09/01 18:05:35;;;;;;;34.23;32.03;;;;;;;18.79;100.00;102933.79;1971949;73;30943;-66
2021/09/01 18:11:00;;;;;;;34.50;32.40;;;;;;;18.82;100.00;102929.00;1972122;73;31002;-70
2021/09/01 18:16:26;;;;;;;33.37;31.23;;;;;;;18.71;100.00;102923.98;1972006;73;30980;-69
2021/09/01 18:21:51;;;;;;;33.70;31.70;;;;;;;18.74;100.00;102914.13;1957448;73;31042;-66
2021/09/01 18:27:16;;;;;;;34.13;32.03;;;;;;;18.65;100.00;102906.86;1972094;73;31499;-67
2021/09/01 18:32:40;;;;;;;35.37;33.07;;;;;;;18.60;100.00;102911.95;1972009;72;31525;-70
2021/09/01 18:38:07;;;;;;;35.57;33.40;;;;;;;18.55;100.00;102913.94;1972178;73;31563;-67
2021/09/01 18:43:33;;;;;;;37.90;35.50;;;;;;;18.47;100.00;102916.77;1971989;73;31030;-68
2021/09/01 18:49:01;;;;;;;37.63;35.23;;;;;;;18.35;100.00;102912.60;1972032;73;30956;-69
2021/09/01 18:54:27;;;;;;;39.23;36.63;;;;;;;18.27;100.00;102914.61;1972128;73;31568;-67
2021/09/01 18:59:52;;;;;;;39.60;36.90;;;;;;;18.28;100.00;102914.30;1972231;73;31519;-67
2021/09/01 19:05:22;;;;;;;40.87;38.07;;;;;;;18.18;100.00;102914.36;1972167;73;31003;-72
2021/09/01 19:10:49;;;;;;;40.77;38.17;;;;;;;18.23;100.00;102917.13;1972056;73;30949;-69
2021/09/01 19:16:14;;;;;;;42.07;39.20;;;;;;;18.11;100.00;102927.30;1971978;73;30965;-68
2021/09/01 19:24:26;;;;;;;40.13;37.40;;;;;;;18.18;100.00;102927.02;2061156;69;30596;-68
2021/09/01 19:26:58;;;;;;;40.30;37.43;;;;;;;18.18;100.00;102936.27;2030683;71;24140;-68
2021/09/01 19:29:30;;;;;;;38.83;36.13;;;;;;;18.14;100.00;102934.34;2031122;71;24101;-72
2021/09/01 19:32:01;;;;;;;40.00;37.07;;;;;;;18.14;100.00;102933.75;2030689;71;24100;-71
2021/09/01 19:34:33;;;;;;;40.00;37.27;;;;;;;18.26;100.00;102933.45;2030732;70;24102;-70
2021/09/01 19:37:05;;;;;;;40.00;37.10;;;;;;;18.21;100.00;102932.06;2030783;70;24246;-73
2021/09/01 19:39:35;;;;;;;42.40;39.50;;;;;;;18.20;100.00;102934.02;2030675;71;24108;-67
2021/09/01 19:42:08;;;;;;;42.67;39.57;;;;;;;18.17;100.00;102936.58;2030592;71;26216;-71
2021/09/01 19:44:40;;;;;;;44.13;40.93;;;;;;;18.17;100.00;102940.23;2030704;70;24629;-72
2021/09/01 19:47:13;;;;;;;42.17;39.27;;;;;;;18.15;100.00;102934.59;2030765;71;24101;-68
2021/09/01 19:49:45;;;;;;;45.53;41.80;;;;;;;18.10;100.00;102937.42;2030577;71;24155;-71
2021/09/01 19:52:17;;;;;;;44.00;40.70;;;;;;;18.03;100.00;102945.32;2030603;71;24113;-69
2021/09/01 19:54:49;;;;;;;46.10;42.70;;;;;;;18.01;100.00;102948.41;2030805;70;24116;-71
2021/09/01 19:57:22;;;;;;;45.53;42.27;;;;;;;17.95;100.00;102952.37;2030640;71;24113;-71
2021/09/01 19:59:57;;;;;;;44.83;41.47;;;;;;;17.98;100.00;102952.36;2030832;70;24191;-72
2021/09/01 20:02:29;;;;;;;45.13;41.70;;;;;;;17.95;100.00;102959.97;2030921;71;24158;-70
2021/09/01 20:04:59;;;;;;;47.40;43.73;;;;;;;17.91;100.00;102971.50;2030649;71;24162;-71
2021/09/01 20:07:29;;;;;;;45.30;41.87;;;;;;;17.93;100.00;102970.64;2030667;70;24179;-69
2021/09/01 20:09:59;;;;;;;45.73;42.40;;;;;;;17.90;100.00;102974.88;2030611;71;24189;-72
2021/09/01 20:12:29;;;;;;;45.97;42.53;;;;;;;17.88;100.00;102967.30;2030708;70;24105;-72
2021/09/01 20:14:59;;;;;;;46.27;42.97;;;;;;;17.78;100.00;102967.30;2030660;70;24101;-70
2021/09/01 20:17:30;;;;;;;47.53;44.13;;;;;;;17.76;100.00;102969.53;2030758;70;24108;-72
2021/09/01 20:20:00;;;;;;;47.00;43.40;;;;;;;17.80;100.00;102968.44;2030622;71;24101;-72
2021/09/01 20:22:31;;;;;;;46.43;43.03;;;;;;;17.75;100.00;102966.47;2001620;71;24177;-71
2021/09/01 20:25:02;;;;;;;47.50;44.07;;;;;;;17.74;100.00;102963.37;1980279;72;26757;-72
2021/09/01 20:27:33;;;;;;;47.80;44.47;;;;;;;17.71;100.00;102961.95;1980302;72;24119;-71
2021/09/01 20:30:06;;;;;;;47.87;44.07;;;;;;;17.71;100.00;102956.32;1980323;72;24192;-72
2021/09/01 20:32:36;;;;;;;47.50;43.97;;;;;;;17.62;100.00;102962.81;1980310;72;24188;-71
2021/09/01 20:35:08;;;;;;;48.03;44.40;;;;;;;17.54;100.00;102959.95;1979794;72;24130;-71
2021/09/01 20:37:38;;;;;;;48.37;44.40;;;;;;;17.47;100.00;102967.83;1979582;72;24119;-71
2021/09/01 20:40:11;;;;;;;48.90;45.13;;;;;;;17.39;100.00;102961.36;1979580;72;26208;-72
2021/09/01 20:42:44;;;;;;;48.37;44.63;;;;;;;17.29;100.00;102964.16;1979799;72;24219;-78
2021/09/01 20:48:12;;;;;;;50.20;46.37;;;;;;;17.18;100.00;102963.87;1972156;73;30964;-74
2021/09/01 20:53:40;;;;;;;50.33;46.27;;;;;;;17.00;100.00;102982.08;1971908;73;32922;-73
2021/09/01 20:59:05;;;;;;;49.33;45.47;;;;;;;17.12;100.00;102984.08;1972153;73;33501;-75
2021/09/01 21:04:33;;;;;;;48.47;44.43;;;;;;;17.23;100.00;102983.55;1971991;73;30971;-73
2021/09/01 21:10:03;;;;;;;48.17;44.27;;;;;;;17.29;100.00;102991.69;1972103;73;33497;-76
2021/09/01 21:15:28;;;;;;;47.97;44.27;;;;;;;17.29;100.00;102993.09;1971925;73;31047;-76
2021/09/01 21:20:58;;;;;;;50.53;46.23;;;;;;;17.34;100.00;102988.61;1971902;73;30984;-76
2021/09/01 21:26:26;;;;;;;49.07;45.13;;;;;;;17.36;100.00;102989.18;1972209;73;31032;-74
2021/09/01 21:31:55;;;;;;;50.40;46.30;;;;;;;17.29;100.00;102988.03;1972309;73;33457;-75
2021/09/01 21:37:22;;;;;;;51.13;46.70;;;;;;;17.25;100.00;102989.72;1972266;73;33510;-74
2021/09/01 21:42:50;;;;;;;50.17;45.97;;;;;;;17.20;100.00;102999.56;1972212;72;30951;-76
2021/09/01 21:48:15;;;;;;;49.73;45.67;;;;;;;17.12;100.00;102999.52;1972427;73;31053;-76
2021/09/01 21:53:40;;;;;;;50.87;46.77;;;;;;;17.16;100.00;103009.08;1972141;73;33409;-76
2021/09/01 21:59:06;;;;;;;52.40;47.77;;;;;;;17.18;100.00;103008.25;1971923;73;31085;-71
2021/09/01 22:04:32;;;;;;;51.80;47.50;;;;;;;17.08;100.00;103006.81;1972215;73;31574;-71
2021/09/01 22:09:58;;;;;;;49.93;45.90;;;;;;;17.05;100.00;103003.72;1972161;73;33478;-71
2021/09/01 22:15:22;;;;;;;52.30;47.90;;;;;;;17.03;100.00;103000.36;1971971;73;32920;-75